KANQ/ANQ METAR and TAF weather

Enter ICAO airport designator
Station Type Date Time Source
KANQ METAR 2024/02/26 17:15 UTC NOAA

KANQ 261715Z AUTO 11008G13KT 10SM CLR 12/04 A2987 RMK AO2


Station Type Date Time Source
KANQ Decoded METAR 2024/02/26 17:15 UTC NOAA

Station name not available
Feb 26, 2024 - 12:15 PM EST / 2024.02.26 1715 UTC
Wind: from the ESE (110 degrees) at 9 MPH (8 KT) gusting to 15 MPH (13 KT):0
Visibility: 10 mile(s):0
Sky conditions: clear
Temperature: 53 F (12 C)
Dew Point: 39 F (4 C)
Relative Humidity: 57%
Pressure (altimeter): 29.87 in. Hg (1011 hPa)
ob: KANQ 261715Z AUTO 11008G13KT 10SM CLR 12/04 A2987 RMK AO2
cycle: 17

Station Type Date Time Source
KANQ TAF UTC NOAA

Error!

Example: see airport list